Time;durP1;ratioP1;P1;durP2;ratioP2;P2;SDS_P1;SDS_P2;PMS_P1;PMS_P2;Temp;Humidity;BMP_temperature;BMP_pressure;BME280_temperature;BME280_humidity;BME280_pressure;Samples;Min_cycle;Max_cycle;Signal;HPM_P1;HPM_P2
2022/08/17 00:00:20;;;;;;;10.20;7.47;;;;;;;;;;5090616;28;20058;-69
2022/08/17 00:02:58;;;;;;;10.27;7.40;;;;;;;;;;5086853;28;20020;-72
2022/08/17 00:05:24;;;;;;;11.40;7.30;;;;;;;;;;5082045;28;20548;-72
2022/08/17 00:07:50;;;;;;;10.73;7.35;;;;;;;;;;5077856;28;20063;-73
2022/08/17 00:10:16;;;;;;;11.05;7.80;;;;;;;;;;5121584;27;20459;-72
2022/08/17 00:12:43;;;;;;;11.90;7.75;;;;;;;;;;5123041;27;20016;-72
2022/08/17 00:15:10;;;;;;;12.18;8.43;;;;;;;;;;5090416;28;20056;-73
2022/08/17 00:17:36;;;;;;;12.82;8.63;;;;;;;;;;5123697;27;20469;-73
2022/08/17 00:20:02;;;;;;;14.18;8.73;;;;;;;;;;5090524;28;20384;-72
2022/08/17 00:22:28;;;;;;;13.80;10.48;;;;;;;;;;5091037;28;20048;-73
2022/08/17 00:24:54;;;;;;;22.30;12.05;;;;;;;;;;5123612;28;20031;-73
2022/08/17 00:27:20;;;;;;;16.65;12.35;;;;;;;;;;5097555;28;20275;-72
2022/08/17 00:29:47;;;;;;;19.67;13.45;;;;;;;;;;5097300;28;20072;-73
2022/08/17 00:32:14;;;;;;;17.58;12.00;;;;;;;;;;5090297;28;20480;-72
2022/08/17 00:34:40;;;;;;;17.30;12.48;;;;;;;;;;5090672;28;20039;-72
2022/08/17 00:37:06;;;;;;;14.23;10.65;;;;;;;;;;5096553;28;20116;-71
2022/08/17 00:39:33;;;;;;;14.07;9.13;;;;;;;;;;5088859;28;20024;-72
2022/08/17 00:41:59;;;;;;;14.60;10.35;;;;;;;;;;5096231;28;20016;-72
2022/08/17 00:44:25;;;;;;;19.50;11.20;;;;;;;;;;5096399;28;20063;-72
2022/08/17 00:46:51;;;;;;;10.85;7.00;;;;;;;;;;5098105;28;20073;-71
2022/08/17 00:49:23;;;;;;;19.30;9.00;;;;;;;;;;5097696;28;20023;-71
2022/08/17 00:51:58;;;;;;;11.88;8.30;;;;;;;;;;5095757;28;20016;-72
2022/08/17 00:54:29;;;;;;;13.90;10.15;;;;;;;;;;5096797;28;20391;-70
2022/08/17 00:57:01;;;;;;;16.45;10.07;;;;;;;;;;5097427;28;20091;-71
2022/08/17 00:59:29;;;;;;;16.52;10.15;;;;;;;;;;5097988;28;20032;-71
2022/08/17 01:01:57;;;;;;;21.48;12.05;;;;;;;;;;5097570;28;20406;-71
2022/08/17 01:04:23;;;;;;;11.02;9.48;;;;;;;;;;5097854;28;20035;-70
2022/08/17 01:06:50;;;;;;;15.15;9.48;;;;;;;;;;5094999;28;20019;-73
2022/08/17 01:09:17;;;;;;;13.68;9.27;;;;;;;;;;5092585;28;20517;-73
2022/08/17 01:11:44;;;;;;;15.13;10.23;;;;;;;;;;5096378;28;20016;-72
2022/08/17 01:14:10;;;;;;;15.60;9.18;;;;;;;;;;5095081;28;20024;-72
2022/08/17 01:16:36;;;;;;;11.60;8.85;;;;;;;;;;5092145;28;20124;-72
2022/08/17 01:19:08;;;;;;;14.98;8.73;;;;;;;;;;5089953;28;20141;-71
2022/08/17 01:21:40;;;;;;;11.55;8.50;;;;;;;;;;5097707;28;20055;-72
2022/08/17 01:24:06;;;;;;;23.55;15.98;;;;;;;;;;5097302;28;20051;-72
2022/08/17 01:26:33;;;;;;;16.75;12.27;;;;;;;;;;5076264;28;20510;-72
2022/08/17 01:29:00;;;;;;;17.05;10.60;;;;;;;;;;5093530;28;20023;-73
2022/08/17 01:31:29;;;;;;;15.85;11.20;;;;;;;;;;5097974;28;20136;-73
2022/08/17 01:33:56;;;;;;;16.45;9.30;;;;;;;;;;5097001;28;20016;-72
2022/08/17 01:36:22;;;;;;;14.73;8.13;;;;;;;;;;5089005;28;20024;-72
2022/08/17 01:38:48;;;;;;;14.82;8.48;;;;;;;;;;5105900;28;20078;-72
2022/08/17 01:41:15;;;;;;;15.05;8.48;;;;;;;;;;5093849;28;20012;-73
2022/08/17 01:43:51;;;;;;;12.77;7.85;;;;;;;;;;5090651;28;20425;-72
2022/08/17 01:46:23;;;;;;;12.43;7.30;;;;;;;;;;5094070;28;20023;-72
2022/08/17 01:48:50;;;;;;;10.88;7.22;;;;;;;;;;5092292;28;20043;-72
2022/08/17 01:51:16;;;;;;;11.70;7.40;;;;;;;;;;5086126;28;20025;-72
2022/08/17 01:53:46;;;;;;;16.00;7.57;;;;;;;;;;5077006;28;20387;-71
2022/08/17 01:56:14;;;;;;;15.95;8.52;;;;;;;;;;5088694;28;20024;-72
2022/08/17 01:58:41;;;;;;;11.60;7.47;;;;;;;;;;5093425;28;20069;-72
2022/08/17 02:01:08;;;;;;;12.93;7.63;;;;;;;;;;5093707;28;20506;-72
2022/08/17 02:03:35;;;;;;;15.82;7.78;;;;;;;;;;5093954;28;20510;-72
2022/08/17 02:06:02;;;;;;;9.98;8.07;;;;;;;;;;5093609;28;20032;-72
2022/08/17 02:08:28;;;;;;;13.07;8.23;;;;;;;;;;5087729;28;20024;-73
2022/08/17 02:10:54;;;;;;;11.23;8.23;;;;;;;;;;5093357;28;20024;-72
2022/08/17 02:13:20;;;;;;;25.25;8.82;;;;;;;;;;5126181;27;20016;-72
2022/08/17 02:15:46;;;;;;;18.02;7.65;;;;;;;;;;5090626;28;20012;-72
2022/08/17 02:18:13;;;;;;;15.15;7.95;;;;;;;;;;5126149;27;20540;-72
2022/08/17 02:20:41;;;;;;;12.93;7.65;;;;;;;;;;5091720;28;20032;-72
2022/08/17 02:23:07;;;;;;;13.85;8.07;;;;;;;;;;5090515;28;20027;-72
2022/08/17 02:25:35;;;;;;;15.43;8.65;;;;;;;;;;5121553;27;20036;-72
2022/08/17 02:28:01;;;;;;;17.20;7.63;;;;;;;;;;5093166;28;20491;-72
2022/08/17 02:30:27;;;;;;;13.18;8.05;;;;;;;;;;5091937;28;20020;-72
2022/08/17 02:32:53;;;;;;;11.00;8.35;;;;;;;;;;5122889;27;20512;-72
2022/08/17 02:35:21;;;;;;;15.00;11.13;;;;;;;;;;5092765;28;20028;-72
2022/08/17 02:37:48;;;;;;;10.65;8.90;;;;;;;;;;5092908;28;20039;-72
2022/08/17 02:40:14;;;;;;;19.80;9.00;;;;;;;;;;5093127;28;20016;-73
2022/08/17 02:42:41;;;;;;;17.75;9.63;;;;;;;;;;5095164;28;20020;-73
2022/08/17 02:45:13;;;;;;;15.32;8.32;;;;;;;;;;5090900;28;20028;-72
2022/08/17 02:47:39;;;;;;;18.10;10.52;;;;;;;;;;5084967;28;20031;-72
2022/08/17 02:50:06;;;;;;;13.48;8.00;;;;;;;;;;5079723;28;20035;-72
2022/08/17 02:52:34;;;;;;;13.65;8.90;;;;;;;;;;5119723;27;20074;-73
2022/08/17 02:55:00;;;;;;;13.68;8.38;;;;;;;;;;5092930;28;20024;-72
2022/08/17 02:57:26;;;;;;;17.13;8.85;;;;;;;;;;5089311;28;20024;-73
2022/08/17 02:59:52;;;;;;;14.27;8.88;;;;;;;;;;5092489;28;20024;-73
2022/08/17 03:02:18;;;;;;;19.48;9.73;;;;;;;;;;5091356;28;20097;-72
2022/08/17 03:04:44;;;;;;;12.73;8.32;;;;;;;;;;5125666;27;20040;-72
2022/08/17 03:07:10;;;;;;;16.42;9.52;;;;;;;;;;5125422;27;20435;-72
2022/08/17 03:09:36;;;;;;;15.80;10.55;;;;;;;;;;5092563;28;20047;-72
2022/08/17 03:12:04;;;;;;;15.88;10.23;;;;;;;;;;5079122;28;20020;-72
2022/08/17 03:14:31;;;;;;;11.23;8.63;;;;;;;;;;5119216;27;20436;-72
2022/08/17 03:16:58;;;;;;;10.88;9.00;;;;;;;;;;5083678;28;20030;-71
2022/08/17 03:19:24;;;;;;;12.70;8.32;;;;;;;;;;5091029;28;20024;-71
2022/08/17 03:21:50;;;;;;;12.48;9.35;;;;;;;;;;5090809;28;20044;-71
2022/08/17 03:24:16;;;;;;;11.63;7.88;;;;;;;;;;5090271;28;20046;-71
2022/08/17 03:26:42;;;;;;;17.10;7.50;;;;;;;;;;5079900;28;20058;-72
2022/08/17 03:29:08;;;;;;;11.45;7.97;;;;;;;;;;5086160;28;20023;-72
2022/08/17 03:31:34;;;;;;;10.63;7.88;;;;;;;;;;5091418;28;20031;-71
2022/08/17 03:34:00;;;;;;;13.65;6.90;;;;;;;;;;5091181;28;20048;-71
2022/08/17 03:36:26;;;;;;;8.32;7.18;;;;;;;;;;5123658;27;20550;-71
2022/08/17 03:38:52;;;;;;;12.93;8.23;;;;;;;;;;5089688;28;20455;-71
2022/08/17 03:41:18;;;;;;;11.75;8.07;;;;;;;;;;5121009;27;20020;-71
2022/08/17 03:43:44;;;;;;;10.98;7.88;;;538.10;2406.40;;;;;;5095256;28;20016;-72
2022/08/17 03:57:08;;;;;;;13.07;7.55;;;;;;;;;;5090203;28;20050;-71
2022/08/17 03:59:34;;;;;;;9.75;6.45;;;;;;;;;;5085269;28;20036;-71
2022/08/17 04:02:06;;;;;;;14.68;6.85;;;;;;;;;;5090833;28;20070;-70
2022/08/17 04:04:32;;;;;;;16.60;6.10;;;;;;;;;;5091343;28;20392;-70
2022/08/17 04:06:58;;;;;;;8.35;6.28;;;;;;;;;;5091427;28;20114;-71
2022/08/17 04:09:24;;;;;;;12.93;6.82;;;;;;;;;;5124038;27;20028;-73
2022/08/17 04:11:50;;;;;;;16.63;7.45;;;;;;;;;;5091532;28;20073;-71
2022/08/17 04:14:16;;;;;;;17.25;7.75;;;;;;;;;;5124085;27;20021;-71
2022/08/17 04:16:43;;;;;;;12.40;7.43;;;;;;;;;;5091710;28;20016;-71
2022/08/17 04:19:09;;;;;;;13.40;7.72;;;;;;;;;;5085987;28;20012;-71
2022/08/17 04:21:35;;;;;;;14.25;7.47;;;;;;;;;;5115399;27;20054;-71
2022/08/17 04:24:01;;;;;;;14.73;6.82;;;;;;;;;;5123904;28;20016;-71
2022/08/17 04:26:28;;;;;;;22.50;8.43;;;;;;;;;;5091630;28;20020;-70
2022/08/17 04:28:54;;;;;;;13.65;7.55;;;;;;;;;;5082621;28;20028;-71
2022/08/17 04:31:20;;;;;;;15.55;8.77;;;;;;;;;;5083112;28;20022;-71
2022/08/17 04:33:46;;;;;;;24.63;10.80;;;;;;;;;;5090718;28;20028;-70
2022/08/17 04:36:13;;;;;;;18.63;10.73;;;;;;;;;;5091086;28;20021;-70
2022/08/17 04:38:41;;;;;;;40.35;11.45;;;;;;;;;;5092096;28;20482;-70
2022/08/17 04:43:57;;;;;;;23.90;12.57;;;;;;;;;;5093739;28;20050;-71
2022/08/17 04:46:27;;;;;;;22.15;14.60;;;;;;;;;;5088507;28;20020;-71
2022/08/17 04:48:55;;;;;;;29.35;12.77;;;;;;;;;;5090600;28;20031;-69
2022/08/17 04:51:24;;;;;;;27.75;14.50;;;;;;;;;;5090800;28;20020;-71
2022/08/17 04:53:52;;;;;;;36.83;16.58;;;;;;;;;;5090366;28;20107;-72
2022/08/17 04:56:18;;;;;;;26.45;14.45;;;;;;;;;;5090927;28;20049;-71
2022/08/17 04:58:49;;;;;;;24.42;14.52;;;;;;;;;;5090554;28;20012;-71
2022/08/17 05:01:15;;;;;;;26.55;13.10;;;;;;;;;;5074857;28;20558;-72
2022/08/17 05:03:42;;;;;;;25.00;14.38;;;;;;;;;;5090724;28;20032;-78
2022/08/17 05:06:08;;;;;;;23.33;14.43;;;;;;;;;;5113228;28;20163;-78
2022/08/17 05:08:34;;;;;;;31.60;14.45;;;;;;;;;;5079993;28;20046;-80
2022/08/17 05:11:00;;;;;;;17.15;10.85;;;;;;;;;;5073732;28;20046;-76
2022/08/17 05:13:28;;;;;;;32.55;13.98;;;;;;;;;;5092555;28;20052;-79
2022/08/17 05:15:59;;;;;;;25.85;12.13;;;;;;;;;;5073794;28;20013;-77
2022/08/17 05:18:25;;;;;;;19.13;12.70;;;;;;;;;;5092522;28;20028;-77
2022/08/17 05:20:51;;;;;;;25.58;12.40;;;;;;;;;;5094257;28;20051;-78
2022/08/17 05:23:18;;;;;;;23.88;13.75;;;;;;;;;;5094561;28;20020;-77
2022/08/17 05:25:46;;;;;;;17.30;12.27;;;;;;;;;;5126499;27;20055;-80
2022/08/17 05:28:12;;;;;;;20.88;12.30;;;;;;;;;;5091341;28;20023;-80
2022/08/17 05:30:39;;;;;;;25.00;11.43;;;;;;;;;;5089472;28;20388;-78
2022/08/17 05:33:07;;;;;;;17.38;11.75;;;;;;;;;;5091983;28;20012;-77
2022/08/17 05:35:36;;;;;;;22.35;10.65;;;;;;;;;;5092438;28;20054;-79
2022/08/17 05:38:02;;;;;;;22.25;11.02;;;;;;;;;;5126953;27;20018;-78
2022/08/17 05:40:28;;;;;;;19.77;10.07;;;;;;;;;;5092359;28;20099;-78
2022/08/17 05:43:04;;;;;;;29.67;11.15;;;;;;;;;;5094662;28;20013;-77
2022/08/17 05:45:31;;;;;;;17.40;10.48;;;;;;;;;;5125462;27;20069;-77
2022/08/17 05:47:57;;;;;;;17.67;10.55;;;;;;;;;;5123701;27;20028;-80
2022/08/17 05:50:26;;;;;;;13.80;9.88;;;;;;;;;;5093901;28;20024;-78
2022/08/17 05:52:55;;;;;;;15.93;10.10;;;;;;;;;;5090889;28;20016;-79
2022/08/17 05:55:26;;;;;;;13.75;9.23;;;;;;;;;;5093251;28;20024;-79
2022/08/17 05:58:15;;;;;;;18.77;9.57;;;;;;;;;;5122418;27;20027;-78
2022/08/17 06:00:45;;;;;;;14.52;10.32;;;;;;;;;;5079738;28;20074;-78
2022/08/17 06:03:23;;;;;;;18.45;10.20;;;;;;;;;;5093576;28;20024;-80
2022/08/17 06:06:25;;;;;;;19.85;9.95;;;;;;;;;;5125694;27;20112;-79
2022/08/17 06:09:16;;;;;;;17.92;11.38;;;;;;;;;;5053596;28;20035;-77
2022/08/17 06:11:47;;;;;;;21.98;9.63;;;;;;;;;;5091527;28;20166;-77
2022/08/17 06:14:28;;;;;;;14.57;9.85;;;;;;;;;;5079549;28;20107;-77
2022/08/17 06:17:00;;;;;;;17.83;9.57;;;;;;;;;;5089895;28;20027;-77
2022/08/17 06:20:05;;;;;;;19.15;11.27;;;;;;;;;;5125970;27;20027;-77
2022/08/17 06:22:37;;;;;;;23.17;11.00;;;;;;;;;;5029852;28;20118;-75
2022/08/17 06:25:04;;;;;;;;;;;;;;;;;;5030325;28;20048;-77
2022/08/17 06:27:35;;;;;;;14.73;10.52;;;;;;;;;;5062031;28;19904;-78
2022/08/17 06:30:12;;;;;;;18.08;10.57;;;;;;;;;;5093001;28;20478;-77
2022/08/17 06:32:39;;;;;;;25.13;11.70;;;;;;;;;;5091948;28;20055;-77
2022/08/17 06:35:06;;;;;;;18.70;10.45;;;;;;;;;;5092540;28;20035;-77
2022/08/17 06:37:32;;;;;;;28.02;11.02;;;;;;;;;;5092572;28;20023;-76
2022/08/17 06:40:12;;;;;;;21.80;10.30;;;;;;;;;;5122578;27;20021;-77
2022/08/17 06:42:43;;;;;;;17.60;8.93;;;;;;;;;;5090573;28;20016;-79
2022/08/17 06:45:13;;;;;;;18.02;10.00;;;;;;;;;;5094647;28;20091;-77
2022/08/17 06:47:46;;;;;;;17.33;10.32;;;;;;;;;;5093180;28;20438;-78
2022/08/17 06:50:13;;;;;;;;;;;;;;;;;;5079507;28;20109;-78
2022/08/17 06:52:44;;;;;;;12.27;8.48;;;;;;;;;;5125472;27;20288;-77
2022/08/17 06:55:33;;;;;;;12.43;8.50;;;;;;;;;;5092484;28;20020;-76
2022/08/17 06:58:02;;;;;;;18.77;9.55;;;;;;;;;;5080247;28;20024;-78
2022/08/17 07:00:32;;;;;;;21.23;8.48;;;;;;;;;;5091419;28;20047;-77
2022/08/17 07:03:08;;;;;;;11.15;8.32;;;;;;;;;;5092857;28;20164;-77
2022/08/17 07:06:00;;;;;;;13.73;6.57;;;;;;;;;;5092489;28;20043;-76
2022/08/17 07:08:36;;;;;;;14.18;7.97;;;;;;;;;;5091146;28;20064;-77
2022/08/17 07:11:04;;;;;;;17.33;7.78;;;;;;;;;;5091025;28;20561;-78
2022/08/17 07:13:31;;;;;;;13.52;7.97;;;;;;;;;;5124754;27;20024;-79
2022/08/17 07:16:03;;;;;;;13.55;8.07;;;;;;;;;;5092622;28;20483;-77
2022/08/17 07:18:31;;;;;;;12.13;7.57;;;;;;;;;;5091988;28;20055;-79
2022/08/17 07:20:59;;;;;;;16.60;7.85;;;;;;;;;;5084335;28;20060;-78
2022/08/17 07:23:33;;;;;;;15.85;7.65;;;;;;;;;;5085728;28;20028;-79
2022/08/17 07:26:06;;;;;;;12.05;7.40;;;;;;;;;;5124790;27;20036;-76
2022/08/17 07:28:33;;;;;;;8.23;6.43;;;;;;;;;;5124681;27;20113;-79
2022/08/17 07:30:59;;;;;;;13.00;6.45;;;;;;;;;;5124643;27;20403;-79
2022/08/17 07:33:27;;;;;;;14.55;7.07;;;;;;;;;;5124526;27;20042;-78
2022/08/17 07:35:54;;;;;;;9.07;6.05;;;;;;;;;;5108998;27;20028;-79
2022/08/17 07:38:23;;;;;;;12.48;6.28;;;;;;;;;;5090345;28;20027;-78
2022/08/17 07:41:01;;;;;;;7.47;5.78;;;;;;;;;;5091371;28;20016;-78
2022/08/17 07:43:27;;;;;;;14.18;6.30;;;;;;;;;;5124334;27;20105;-76
2022/08/17 07:48:41;;;;;;;15.40;8.10;;;;;;;;;;5091152;28;20154;-80
2022/08/17 07:51:15;;;;;;;9.20;6.28;;;;;;;;;;5090294;28;20399;-79
2022/08/17 07:53:41;;;;;;;9.88;5.57;;;;;;;;;;5124463;27;20024;-79
2022/08/17 07:56:07;;;;;;;16.13;7.82;;;;;;;;;;5124415;27;20181;-78
2022/08/17 07:58:33;;;;;;;13.23;7.78;;;;;;;;;;5091272;28;20024;-82
2022/08/17 08:01:05;;;;;;;15.57;5.63;;;;;;;;;;5123906;27;20051;-75
2022/08/17 08:03:32;;;;;;;14.23;6.60;;;;;;;;;;5090995;28;20093;-76
2022/08/17 08:06:01;;;;;;;24.88;7.00;;;;;;;;;;5091272;28;20036;-75
2022/08/17 08:08:36;;;;;;;9.23;6.03;;;;;;;;;;5091132;28;20119;-75
2022/08/17 08:11:06;;;;;;;10.60;6.63;;;;;;;;;;5091190;28;20028;-75
2022/08/17 08:13:33;;;;;;;15.57;6.07;;;;;;;;;;5089389;28;20086;-79
2022/08/17 08:16:14;;;;;;;9.38;6.05;;;;;;;;;;5090114;28;20027;-77
2022/08/17 08:18:42;;;;;;;12.02;5.82;;;;;;;;;;5090650;28;20379;-77
2022/08/17 08:21:17;;;;;;;9.50;5.45;;;;;;;;;;5090608;28;20039;-79
2022/08/17 08:23:49;;;;;;;12.13;6.03;;;;;;;;;;5088473;28;20012;-79
2022/08/17 08:26:31;;;;;;;14.07;6.15;;;;;;;;;;5090439;28;20459;-77
2022/08/17 08:28:59;;;;;;;12.48;6.70;;;;;;;;;;5090856;28;20034;-80
2022/08/17 08:31:44;;;;;;;11.32;7.75;;;;;;;;;;5091408;28;20027;-78
2022/08/17 08:34:18;;;;;;;11.70;7.25;;;;;;;;;;5076701;28;20020;-76
2022/08/17 08:36:45;;;;;;;14.77;6.95;;;;;;;;;;5089733;28;20039;-78
2022/08/17 08:39:22;;;;;;;13.15;7.05;;;;;;;;;;5090474;28;20430;-77
2022/08/17 08:41:58;;;;;;;11.13;6.30;;;;;;;;;;5074800;28;20105;-77
2022/08/17 08:44:30;;;;;;;11.85;6.45;;;;;;;;;;5079916;28;20032;-77
2022/08/17 08:47:06;;;;;;;10.80;6.47;;;;;;;;;;5094161;28;20061;-77
2022/08/17 08:49:32;;;;;;;12.43;7.25;;;;;;;;;;5094974;28;20016;-76
2022/08/17 08:51:59;;;;;;;11.50;5.38;;;;;;;;;;5095063;28;20091;-79
2022/08/17 08:54:33;;;;;;;12.57;6.85;;;;;;;;;;5094617;28;20027;-78
2022/08/17 08:57:18;;;;;;;9.85;5.30;;;;;;;;;;5090393;28;20323;-76
2022/08/17 08:59:47;;;;;;;15.95;6.97;;;;;;;;;;5127570;27;20495;-77
2022/08/17 09:02:43;;;;;;;10.25;6.25;;;;;;;;;;5126987;27;20177;-77
2022/08/17 09:05:30;;;;;;;12.38;7.18;;;;;;;;;;5010892;28;20046;-76
2022/08/17 09:08:06;;;;;;;9.35;6.30;;;;;;;;;;5094305;28;20098;-78
2022/08/17 09:10:38;;;;;;;22.35;20.02;;;;;;;;;;5092431;28;20020;-79
2022/08/17 09:13:10;;;;;;;14.20;7.65;;;;;;;;;;5094401;28;20027;-79
2022/08/17 09:15:59;;;;;;;16.75;8.48;;;;;;;;;;5093156;28;20077;-78
2022/08/17 09:18:28;;;;;;;16.83;13.52;;;;;;;;;;5087141;28;20095;-78
2022/08/17 09:21:00;;;;;;;17.38;10.50;;;;;;;;;;5094239;28;20147;-78
2022/08/17 09:23:31;;;;;;;12.30;6.40;;;;;;;;;;5094321;28;20024;-77
2022/08/17 09:26:10;;;;;;;13.95;8.85;;;;;;;;;;5094128;28;20076;-78
2022/08/17 09:28:39;;;;;;;8.90;4.82;;;;;;;;;;5093323;28;20059;-76
2022/08/17 09:31:11;;;;;;;10.00;5.82;;;;;;;;;;5127207;27;20012;-78
2022/08/17 09:33:42;;;;;;;9.50;5.18;;;;;;;;;;5126637;27;20055;-77
2022/08/17 09:36:08;;;;;;;16.10;10.35;;;;;;;;;;5094149;28;20016;-78
2022/08/17 09:38:40;;;;;;;16.58;14.88;;;;;;;;;;5126944;27;20127;-78
2022/08/17 09:41:06;;;;;;;8.77;6.70;;;;;;;;;;5094385;28;20141;-79
2022/08/17 09:43:42;;;;;;;14.02;8.45;;;;;;;;;;5093826;28;20024;-76
2022/08/17 09:46:30;;;;;;;12.63;5.70;;;;;;;;;;5095843;28;20498;-77
2022/08/17 09:48:56;;;;;;;10.00;6.43;;;;;;;;;;5094105;28;20028;-77
2022/08/17 09:51:30;;;;;;;13.30;6.47;;;;;;;;;;5093533;28;20020;-78
2022/08/17 09:53:57;;;;;;;12.30;6.13;;;;;;;;;;5126554;27;20047;-78
2022/08/17 09:56:35;;;;;;;10.30;6.18;;;;;;;;;;5093521;28;20031;-79
2022/08/17 09:59:04;;;;;;;9.45;5.47;;;;;;;;;;5093127;28;20475;-79
2022/08/17 10:01:30;;;;;;;9.50;5.75;;;;;;;;;;5089139;28;20115;-78
2022/08/17 10:04:05;;;;;;;13.30;7.32;;;;;;;;;;5121740;27;20008;-74
2022/08/17 10:06:36;;;;;;;11.30;6.03;;;;;;;;;;5088625;28;20503;-78
2022/08/17 10:09:08;;;;;;;11.02;4.93;;;;;;;;;;5093791;28;20050;-77
2022/08/17 10:14:42;;;;;;;12.68;6.07;;;;;;;;;;5092889;28;20402;-78
2022/08/17 10:17:08;;;;;;;12.63;5.35;;;;;;;;;;5080412;28;20020;-72
2022/08/17 10:19:37;;;;;;;11.05;5.05;;;;;;;;;;5074767;28;20056;-78
2022/08/17 10:27:51;;;;;;;15.57;6.35;;;;;;;;;;5093389;28;20035;-77
2022/08/17 10:30:22;;;;;;;20.15;7.03;;;;;;;;;;5093599;28;20023;-78
2022/08/17 10:33:05;;;;;;;14.32;5.40;;;;;;;;;;5086094;28;20165;-77
2022/08/17 10:35:32;;;;;;;19.45;10.88;;;;;;;;;;5087116;28;20024;-75
2022/08/17 10:38:18;;;;;;;14.10;6.20;;;;;;;;;;5085784;28;20024;-75
2022/08/17 10:40:56;;;;;;;12.93;6.65;;;;;;;;;;5088968;28;20478;-78
2022/08/17 10:43:43;;;;;;;36.90;8.02;;;;;;;;;;5091254;28;20364;-74
2022/08/17 10:46:19;;;;;;;8.88;5.22;;;;;;;;;;5095545;28;20123;-74
2022/08/17 10:48:46;;;;;;;12.05;6.32;;;;;;;;;;5093206;28;20024;-73
2022/08/17 10:51:35;;;;;;;9.70;4.93;;;;;;;;;;5087647;28;20031;-74
2022/08/17 10:54:04;;;;;;;7.22;4.78;;;;;;;;;;5089594;28;20277;-74
2022/08/17 10:56:41;;;;;;;7.88;5.38;;;;;;;;;;5088895;28;20020;-75
2022/08/17 10:59:07;;;;;;;9.38;4.55;;;;;;;;;;5091942;28;20095;-74
2022/08/17 11:01:33;;;;;;;7.80;3.90;;;;;;;;;;5090033;28;20023;-74
2022/08/17 11:04:06;;;;;;;7.30;4.82;;;;;;;;;;5091365;28;20046;-74
2022/08/17 11:06:41;;;;;;;7.45;4.18;;;;;;;;;;5091975;28;20032;-74
2022/08/17 11:09:18;;;;;;;9.80;5.03;;;;;;;;;;5084018;28;20432;-75
2022/08/17 11:11:46;;;;;;;7.03;4.38;;;;;;;;;;5091353;28;20047;-76
2022/08/17 11:14:20;;;;;;;7.65;4.90;;;;;;;;;;5077164;28;20008;-76
2022/08/17 11:16:49;;;;;;;13.52;4.93;;;;;;;;;;5091743;28;20115;-78
2022/08/17 11:19:30;;;;;;;8.18;4.68;;;;;;;;;;5091630;28;20465;-77
2022/08/17 11:21:59;;;;;;;7.75;4.35;;;;;;;;;;5077758;28;20062;-76
2022/08/17 11:24:31;;;;;;;8.98;4.57;;;;;;;;;;5078124;28;20475;-77
2022/08/17 11:27:16;;;;;;;6.10;4.18;;;;;;;;;;5125175;27;20374;-78
2022/08/17 11:30:21;;;;;;;7.03;4.32;;;;;;;;;;5078616;28;20475;-77
2022/08/17 11:32:49;;;;;;;9.80;5.05;;;;;;;;;;5013898;28;20033;-77
2022/08/17 11:35:20;;;;;;;7.47;4.63;;;;;;;;;;5027340;28;20025;-76
2022/08/17 11:38:09;;;;;;;10.05;5.70;;;;;;;;;;5059868;28;20552;-75
2022/08/17 11:40:49;;;;;;;7.97;5.50;;;;;;;;;;5122763;27;20391;-75
2022/08/17 11:43:16;;;;;;;10.23;5.72;;;;;;;;;;5090015;28;20020;-76
2022/08/17 11:45:54;;;;;;;7.05;4.28;;;;;;;;;;5089913;28;20829;-76
2022/08/17 11:51:46;;;;;;;8.63;4.95;;;;;;;;;;5091599;28;20035;-75
2022/08/17 11:54:19;;;;;;;5.95;4.68;;;;;;;;;;5124281;27;20589;-76
2022/08/17 11:56:50;;;;;;;9.02;4.78;;;;;;;;;;5091313;28;20540;-76
2022/08/17 11:59:32;;;;;;;8.35;4.75;;;;;;;;;;5124401;27;20023;-76
2022/08/17 12:01:58;;;;;;;7.43;4.47;;;;;;;;;;5084652;28;20527;-75
2022/08/17 12:04:29;;;;;;;7.63;4.53;;;;;;;;;;5088790;28;20482;-77
2022/08/17 12:07:16;;;;;;;5.43;3.88;;;;;;;;;;5091397;28;20479;-75
2022/08/17 12:09:45;;;;;;;10.60;4.38;;;;;;;;;;5087287;28;20487;-75
2022/08/17 12:12:13;;;;;;;6.53;4.20;;;;;;;;;;5090107;28;20375;-76
2022/08/17 12:14:44;;;;;;;8.45;4.20;;;;;;;;;;5089890;28;20363;-75
2022/08/17 12:17:13;;;;;;;8.50;4.38;;;;;;;;;;5091532;28;20016;-75
2022/08/17 12:19:41;;;;;;;5.28;4.30;;;;;;;;;;5090898;28;20471;-75
2022/08/17 12:22:21;;;;;;;12.40;5.40;;;;;;;;;;5090739;28;20048;-76
2022/08/17 12:25:01;;;;;;;7.93;4.18;;;;;;;;;;5090909;28;20402;-76
2022/08/17 12:27:32;;;;;;;10.13;5.22;;;;;;;;;;5123963;28;20383;-80
2022/08/17 12:29:59;;;;;;;9.80;4.88;;;;;;;;;;5122779;27;20394;-78
2022/08/17 12:32:32;;;;;;;8.05;4.80;;;;;;;;;;5086493;28;20124;-78
2022/08/17 12:34:57;;;;;;;;;;;;;;;;;;5077487;28;20455;-76
2022/08/17 12:37:25;;;;;;;9.20;4.45;;;;;;;;;;5102147;28;19939;-77
2022/08/17 12:39:51;;;;;;;7.97;6.03;;;;;;;;;;5086841;28;20095;-77
2022/08/17 12:42:21;;;;;;;6.25;4.00;;;;;;;;;;5117217;28;20068;-77
2022/08/17 12:44:47;;;;;;;5.93;4.60;;;;;;;;;;5090481;28;20455;-76
2022/08/17 12:47:16;;;;;;;6.50;5.13;;;;;;;;;;5089818;28;20028;-79
2022/08/17 12:49:43;;;;;;;7.60;4.43;;;;;;;;;;5077959;28;20021;-78
2022/08/17 12:52:13;;;;;;;10.25;5.10;;;;;;;;;;5088320;28;20020;-78
2022/08/17 12:54:58;;;;;;;4.97;3.78;;;;;;;;;;5081007;28;20028;-77
2022/08/17 12:57:32;;;;;;;6.32;4.10;;;;;;;;;;5088549;28;20028;-76
2022/08/17 13:00:00;;;;;;;5.85;4.70;;;;;;;;;;5087429;28;20020;-77
2022/08/17 13:02:45;;;;;;;7.15;4.32;;;;;;;;;;5083808;28;20027;-78
2022/08/17 13:05:17;;;;;;;7.05;4.32;;;;;;;;;;5089224;28;20067;-74
2022/08/17 13:07:45;;;;;;;6.72;4.25;;;;;;;;;;5086240;28;20028;-75
2022/08/17 13:10:37;;;;;;;9.63;5.18;;;;;;;;;;5088148;28;20016;-73
2022/08/17 13:13:16;;;;;;;6.18;4.28;;;;;;;;;;5084687;28;20701;-73
2022/08/17 13:15:50;;;;;;;11.02;5.43;;;;;;;;;;5081424;28;20029;-73
2022/08/17 13:18:31;;;;;;;6.88;4.28;;;;;;;;;;5086965;28;20044;-72
2022/08/17 13:20:58;;;;;;;8.00;4.72;;;;;;;;;;5087285;28;20052;-75
2022/08/17 13:23:27;;;;;;;5.78;4.63;;;;;;;;;;5089015;28;20104;-74
2022/08/17 13:25:54;;;;;;;7.05;4.10;;;;;;;;;;5085974;28;20032;-75
2022/08/17 13:28:22;;;;;;;8.63;4.82;;;;;;;;;;5088197;28;20036;-75
2022/08/17 13:30:48;;;;;;;7.03;4.82;;;;;;;;;;5087382;28;20050;-76
2022/08/17 13:33:24;;;;;;;7.85;4.40;;;;;;;;;;5120877;27;20035;-73
2022/08/17 13:35:51;;;;;;;7.97;4.75;;;;;;;;;;5090175;28;20012;-76
2022/08/17 13:38:39;;;;;;;8.77;4.97;;;;;;;;;;5093058;28;20024;-77
2022/08/17 13:41:06;;;;;;;6.50;4.90;;;;;;;;;;5124542;27;20416;-76
2022/08/17 13:43:48;;;;;;;7.43;5.10;;;;;;;;;;5092960;28;20100;-77
2022/08/17 13:46:20;;;;;;;6.43;4.10;;;;;;;;;;5092773;28;20051;-77
2022/08/17 13:48:47;;;;;;;8.55;4.85;;;;;;;;;;5094034;28;20061;-77
2022/08/17 13:51:20;;;;;;;9.57;4.43;;;;;;;;;;5092827;28;20031;-74
2022/08/17 13:53:49;;;;;;;6.72;3.55;;;;;;;;;;5091372;28;20035;-78
2022/08/17 13:56:28;;;;;;;7.75;5.35;;;;;;;;;;5089254;28;20048;-75
2022/08/17 13:59:01;;;;;;;9.00;3.78;;;;;;;;;;5126035;27;20043;-76
2022/08/17 14:01:27;;;;;;;8.68;4.68;;;;;;;;;;5087967;28;20108;-78
2022/08/17 14:03:58;;;;;;;7.25;4.18;;;;;;;;;;5092814;28;20044;-77
2022/08/17 14:06:25;;;;;;;4.55;3.47;;;;;;;;;;5091052;28;20168;-77
2022/08/17 14:08:53;;;;;;;7.32;3.45;;;;;;;;;;5091687;28;20016;-76
2022/08/17 14:11:20;;;;;;;4.93;3.83;;;;;;;;;;5084496;28;20024;-78
2022/08/17 14:13:47;;;;;;;6.38;4.10;;;;;;;;;;5118756;27;20032;-75
2022/08/17 14:16:14;;;;;;;5.97;5.20;;;;;;;;;;5079316;28;20015;-75
2022/08/17 14:18:40;;;;;;;7.80;4.45;;;;;;;;;;5093350;28;20028;-76
2022/08/17 14:21:07;;;;;;;9.45;4.72;;;;;;;;;;5092804;28;20048;-74
2022/08/17 14:23:34;;;;;;;13.73;4.43;;;;;;;;;;5090369;28;20099;-77
2022/08/17 14:26:00;;;;;;;8.52;4.78;;;;;;;;;;5090216;28;20028;-75
2022/08/17 14:28:26;;;;;;;8.57;4.28;;;;;;;;;;5092567;28;20439;-75
2022/08/17 14:30:52;;;;;;;5.05;4.28;;;;;;;;;;5090231;28;20099;-76
2022/08/17 14:33:23;;;;;;;6.22;3.63;;;;;;;;;;5089477;28;20016;-73
2022/08/17 14:35:52;;;;;;;7.93;4.72;;;;;;;;;;5088336;28;20478;-74
2022/08/17 14:38:19;;;;;;;8.35;4.28;;;;;;;;;;5091613;28;20073;-73
2022/08/17 14:40:45;;;;;;;6.25;5.65;;;;;;;;;;5092662;28;20115;-74
2022/08/17 14:43:11;;;;;;;4.93;4.43;;;;;;;;;;5123828;27;20112;-75
2022/08/17 14:45:37;;;;;;;4.80;4.40;;;;;;;;;;5085548;28;20077;-76
2022/08/17 14:48:06;;;;;;;7.80;4.85;;;;;;;;;;5081572;28;20028;-75
2022/08/17 14:50:33;;;;;;;6.47;4.75;;;;;;;;;;5090892;28;20028;-76
2022/08/17 14:52:59;;;;;;;6.22;4.68;;;;;;;;;;5090982;28;20073;-76
2022/08/17 14:55:26;;;;;;;11.48;5.38;;;;;;;;;;5119625;27;20035;-78
2022/08/17 14:57:54;;;;;;;6.55;4.95;;;;;;;;;;5088558;28;20020;-76
2022/08/17 15:00:23;;;;;;;6.70;5.25;;;;;;;;;;5090950;28;20032;-74
2022/08/17 15:02:54;;;;;;;8.05;5.03;;;;;;;;;;5092231;28;20511;-74
2022/08/17 15:05:24;;;;;;;8.07;4.47;;;;;;;;;;5091298;28;20046;-74
2022/08/17 15:07:52;;;;;;;6.80;4.85;;;;;;;;;;5091113;28;20097;-74
2022/08/17 15:10:18;;;;;;;7.10;5.00;;;;;;;;;;5086826;28;20510;-74
2022/08/17 15:12:44;;;;;;;6.53;4.65;;;;;;;;;;5085411;28;20069;-75
2022/08/17 15:15:11;;;;;;;10.45;4.20;;;;;;;;;;5089216;28;20016;-73
2022/08/17 15:17:38;;;;;;;5.00;4.30;;;;;;;;;;5088178;28;20028;-74